sensor_id;sensor_type;location;lat;lon;timestamp;P1;durP1;ratioP1;P2;durP2;ratioP2
41466;SDS011;27205;53.690;19.948;2023-01-10T00:02:07;32.40;;;29.90;;
41466;SDS011;27205;53.690;19.948;2023-01-10T00:07:10;33.10;;;30.40;;
41466;SDS011;27205;53.690;19.948;2023-01-10T00:12:14;35.30;;;32.40;;
41466;SDS011;27205;53.690;19.948;2023-01-10T00:17:36;32.30;;;29.70;;
41466;SDS011;27205;53.690;19.948;2023-01-10T00:22:39;32.90;;;30.30;;
41466;SDS011;27205;53.690;19.948;2023-01-10T00:27:43;33.60;;;30.90;;
41466;SDS011;27205;53.690;19.948;2023-01-10T00:32:47;31.90;;;29.40;;
41466;SDS011;27205;53.690;19.948;2023-01-10T00:37:51;33.30;;;30.60;;
41466;SDS011;27205;53.690;19.948;2023-01-10T00:42:59;31.70;;;29.10;;
41466;SDS011;27205;53.690;19.948;2023-01-10T00:48:22;32.70;;;30.10;;
41466;SDS011;27205;53.690;19.948;2023-01-10T00:53:26;23.10;;;21.10;;
41466;SDS011;27205;53.690;19.948;2023-01-10T00:58:29;31.80;;;29.30;;
41466;SDS011;27205;53.690;19.948;2023-01-10T01:03:33;24.10;;;22.20;;
41466;SDS011;27205;53.690;19.948;2023-01-10T01:08:36;32.70;;;30.00;;
41466;SDS011;27205;53.690;19.948;2023-01-10T01:13:40;32.50;;;29.90;;
41466;SDS011;27205;53.690;19.948;2023-01-10T01:18:43;31.70;;;29.10;;
41466;SDS011;27205;53.690;19.948;2023-01-10T01:23:47;32.00;;;29.40;;
41466;SDS011;27205;53.690;19.948;2023-01-10T01:28:50;31.00;;;28.50;;
41466;SDS011;27205;53.690;19.948;2023-01-10T01:33:54;29.30;;;26.90;;
41466;SDS011;27205;53.690;19.948;2023-01-10T01:38:57;32.80;;;30.20;;
41466;SDS011;27205;53.690;19.948;2023-01-10T01:44:04;29.20;;;26.80;;
41466;SDS011;27205;53.690;19.948;2023-01-10T01:49:12;32.40;;;29.90;;
41466;SDS011;27205;53.690;19.948;2023-01-10T01:54:21;30.40;;;28.00;;
41466;SDS011;27205;53.690;19.948;2023-01-10T01:59:29;28.30;;;26.00;;
41466;SDS011;27205;53.690;19.948;2023-01-10T02:04:46;28.40;;;26.20;;
41466;SDS011;27205;53.690;19.948;2023-01-10T02:09:54;29.60;;;27.30;;
41466;SDS011;27205;53.690;19.948;2023-01-10T02:15:05;27.90;;;25.70;;
41466;SDS011;27205;53.690;19.948;2023-01-10T02:20:09;27.30;;;25.20;;
41466;SDS011;27205;53.690;19.948;2023-01-10T02:31:03;28.10;;;25.80;;
41466;SDS011;27205;53.690;19.948;2023-01-10T02:47:06;23.40;;;21.60;;
41466;SDS011;27205;53.690;19.948;2023-01-10T02:52:11;22.80;;;21.10;;
41466;SDS011;27205;53.690;19.948;2023-01-10T03:18:57;20.60;;;19.00;;
41466;SDS011;27205;53.690;19.948;2023-01-10T03:24:16;20.90;;;19.30;;
41466;SDS011;27205;53.690;19.948;2023-01-10T03:29:26;23.30;;;21.40;;
41466;SDS011;27205;53.690;19.948;2023-01-10T03:34:35;24.50;;;22.50;;
41466;SDS011;27205;53.690;19.948;2023-01-10T03:39:52;23.00;;;21.10;;
41466;SDS011;27205;53.690;19.948;2023-01-10T03:45:05;23.20;;;21.40;;
41466;SDS011;27205;53.690;19.948;2023-01-10T03:50:21;16.80;;;15.50;;
41466;SDS011;27205;53.690;19.948;2023-01-10T03:55:27;21.80;;;20.10;;
41466;SDS011;27205;53.690;19.948;2023-01-10T04:00:32;21.90;;;20.10;;
41466;SDS011;27205;53.690;19.948;2023-01-10T04:05:35;20.80;;;19.20;;
41466;SDS011;27205;53.690;19.948;2023-01-10T04:10:39;20.80;;;19.20;;
41466;SDS011;27205;53.690;19.948;2023-01-10T04:15:42;35.30;;;32.40;;
41466;SDS011;27205;53.690;19.948;2023-01-10T04:20:46;33.60;;;30.70;;
41466;SDS011;27205;53.690;19.948;2023-01-10T04:25:49;25.80;;;23.70;;
41466;SDS011;27205;53.690;19.948;2023-01-10T04:30:53;28.40;;;26.00;;
41466;SDS011;27205;53.690;19.948;2023-01-10T04:35:56;27.30;;;25.00;;
41466;SDS011;27205;53.690;19.948;2023-01-10T04:41:00;18.70;;;17.20;;
41466;SDS011;27205;53.690;19.948;2023-01-10T04:46:03;24.70;;;22.70;;
41466;SDS011;27205;53.690;19.948;2023-01-10T04:51:07;33.90;;;24.00;;
41466;SDS011;27205;53.690;19.948;2023-01-10T04:56:14;34.50;;;23.40;;
41466;SDS011;27205;53.690;19.948;2023-01-10T05:01:21;49.40;;;29.90;;
41466;SDS011;27205;53.690;19.948;2023-01-10T05:06:26;58.70;;;39.90;;
41466;SDS011;27205;53.690;19.948;2023-01-10T05:11:30;45.60;;;34.40;;
41466;SDS011;27205;53.690;19.948;2023-01-10T05:16:33;51.60;;;31.20;;
41466;SDS011;27205;53.690;19.948;2023-01-10T05:21:38;51.20;;;45.60;;
41466;SDS011;27205;53.690;19.948;2023-01-10T05:26:41;48.30;;;34.90;;
41466;SDS011;27205;53.690;19.948;2023-01-10T05:31:45;39.60;;;30.80;;
41466;SDS011;27205;53.690;19.948;2023-01-10T05:36:49;32.00;;;29.30;;
41466;SDS011;27205;53.690;19.948;2023-01-10T05:41:52;29.90;;;27.40;;
41466;SDS011;27205;53.690;19.948;2023-01-10T05:46:56;26.50;;;24.30;;
41466;SDS011;27205;53.690;19.948;2023-01-10T05:51:59;29.30;;;26.90;;
41466;SDS011;27205;53.690;19.948;2023-01-10T05:57:03;28.70;;;26.40;;
41466;SDS011;27205;53.690;19.948;2023-01-10T06:02:06;27.60;;;25.40;;
41466;SDS011;27205;53.690;19.948;2023-01-10T06:07:10;26.60;;;24.30;;
41466;SDS011;27205;53.690;19.948;2023-01-10T06:12:13;25.40;;;23.30;;
41466;SDS011;27205;53.690;19.948;2023-01-10T06:17:17;28.00;;;25.90;;
41466;SDS011;27205;53.690;19.948;2023-01-10T06:22:20;25.20;;;23.20;;
41466;SDS011;27205;53.690;19.948;2023-01-10T06:27:27;24.90;;;22.80;;
41466;SDS011;27205;53.690;19.948;2023-01-10T06:32:30;21.40;;;19.70;;
41466;SDS011;27205;53.690;19.948;2023-01-10T06:37:34;21.40;;;19.70;;
41466;SDS011;27205;53.690;19.948;2023-01-10T06:42:39;17.60;;;16.20;;
41466;SDS011;27205;53.690;19.948;2023-01-10T06:47:43;28.40;;;26.00;;
41466;SDS011;27205;53.690;19.948;2023-01-10T06:52:53;26.90;;;24.60;;
41466;SDS011;27205;53.690;19.948;2023-01-10T06:58:07;23.10;;;21.30;;
41466;SDS011;27205;53.690;19.948;2023-01-10T07:03:10;21.70;;;20.00;;
41466;SDS011;27205;53.690;19.948;2023-01-10T07:08:14;14.10;;;13.00;;
41466;SDS011;27205;53.690;19.948;2023-01-10T07:13:18;20.30;;;18.70;;
41466;SDS011;27205;53.690;19.948;2023-01-10T07:25:34;20.90;;;19.20;;
41466;SDS011;27205;53.690;19.948;2023-01-10T07:30:37;20.60;;;18.90;;
41466;SDS011;27205;53.690;19.948;2023-01-10T07:35:41;22.70;;;20.80;;
41466;SDS011;27205;53.690;19.948;2023-01-10T07:40:45;22.10;;;20.50;;
41466;SDS011;27205;53.690;19.948;2023-01-10T07:45:48;19.10;;;17.60;;
41466;SDS011;27205;53.690;19.948;2023-01-10T07:50:58;19.80;;;18.30;;
41466;SDS011;27205;53.690;19.948;2023-01-10T07:56:03;20.40;;;18.70;;
41466;SDS011;27205;53.690;19.948;2023-01-10T08:01:06;19.60;;;18.10;;
41466;SDS011;27205;53.690;19.948;2023-01-10T08:06:10;20.50;;;18.90;;
41466;SDS011;27205;53.690;19.948;2023-01-10T08:11:14;22.10;;;20.40;;
41466;SDS011;27205;53.690;19.948;2023-01-10T08:16:17;23.20;;;21.50;;
41466;SDS011;27205;53.690;19.948;2023-01-10T08:21:22;21.90;;;20.30;;
41466;SDS011;27205;53.690;19.948;2023-01-10T08:26:26;23.70;;;21.80;;
41466;SDS011;27205;53.690;19.948;2023-01-10T08:31:29;19.60;;;18.20;;
41466;SDS011;27205;53.690;19.948;2023-01-10T08:36:33;21.30;;;19.70;;
41466;SDS011;27205;53.690;19.948;2023-01-10T08:41:37;22.40;;;20.70;;
41466;SDS011;27205;53.690;19.948;2023-01-10T08:46:43;26.80;;;24.60;;
41466;SDS011;27205;53.690;19.948;2023-01-10T08:51:47;26.30;;;24.10;;
41466;SDS011;27205;53.690;19.948;2023-01-10T08:56:51;23.90;;;21.90;;
41466;SDS011;27205;53.690;19.948;2023-01-10T09:01:55;22.60;;;20.70;;
41466;SDS011;27205;53.690;19.948;2023-01-10T09:07:00;35.80;;;32.60;;
41466;SDS011;27205;53.690;19.948;2023-01-10T09:12:04;38.70;;;35.40;;
41466;SDS011;27205;53.690;19.948;2023-01-10T09:17:27;28.80;;;26.40;;
41466;SDS011;27205;53.690;19.948;2023-01-10T09:22:31;25.60;;;23.50;;
41466;SDS011;27205;53.690;19.948;2023-01-10T09:27:34;27.10;;;24.80;;
41466;SDS011;27205;53.690;19.948;2023-01-10T09:32:38;23.70;;;21.80;;
41466;SDS011;27205;53.690;19.948;2023-01-10T09:37:41;22.50;;;20.70;;
41466;SDS011;27205;53.690;19.948;2023-01-10T09:43:36;28.80;;;26.40;;
41466;SDS011;27205;53.690;19.948;2023-01-10T09:53:59;24.50;;;22.50;;
41466;SDS011;27205;53.690;19.948;2023-01-10T09:59:16;21.00;;;19.30;;
41466;SDS011;27205;53.690;19.948;2023-01-10T10:04:27;26.10;;;24.00;;
41466;SDS011;27205;53.690;19.948;2023-01-10T10:09:37;23.70;;;21.80;;
41466;SDS011;27205;53.690;19.948;2023-01-10T10:14:50;22.90;;;21.20;;
41466;SDS011;27205;53.690;19.948;2023-01-10T10:20:05;18.10;;;16.80;;
41466;SDS011;27205;53.690;19.948;2023-01-10T10:30:59;15.30;;;14.20;;
41466;SDS011;27205;53.690;19.948;2023-01-10T10:41:53;19.50;;;18.10;;
41466;SDS011;27205;53.690;19.948;2023-01-10T10:46:59;15.10;;;14.00;;
41466;SDS011;27205;53.690;19.948;2023-01-10T10:52:06;15.00;;;13.90;;
41466;SDS011;27205;53.690;19.948;2023-01-10T10:57:28;32.90;;;29.60;;
41466;SDS011;27205;53.690;19.948;2023-01-10T11:02:40;34.60;;;31.20;;
41466;SDS011;27205;53.690;19.948;2023-01-10T11:07:58;30.50;;;27.70;;
41466;SDS011;27205;53.690;19.948;2023-01-10T11:13:14;26.30;;;23.70;;
41466;SDS011;27205;53.690;19.948;2023-01-10T11:18:34;27.40;;;24.90;;
41466;SDS011;27205;53.690;19.948;2023-01-10T11:23:51;18.40;;;17.00;;
41466;SDS011;27205;53.690;19.948;2023-01-10T11:34:24;26.40;;;24.00;;
41466;SDS011;27205;53.690;19.948;2023-01-10T11:39:32;16.60;;;15.40;;
41466;SDS011;27205;53.690;19.948;2023-01-10T11:44:35;18.00;;;16.50;;
41466;SDS011;27205;53.690;19.948;2023-01-10T11:49:39;16.30;;;15.00;;
41466;SDS011;27205;53.690;19.948;2023-01-10T11:54:47;13.50;;;12.50;;
41466;SDS011;27205;53.690;19.948;2023-01-10T11:59:52;13.40;;;12.40;;
41466;SDS011;27205;53.690;19.948;2023-01-10T12:05:05;21.00;;;19.30;;
41466;SDS011;27205;53.690;19.948;2023-01-10T12:10:18;19.10;;;17.60;;
41466;SDS011;27205;53.690;19.948;2023-01-10T12:15:27;18.30;;;17.00;;
41466;SDS011;27205;53.690;19.948;2023-01-10T12:20:41;21.80;;;20.10;;
41466;SDS011;27205;53.690;19.948;2023-01-10T12:25:49;23.80;;;21.90;;
41466;SDS011;27205;53.690;19.948;2023-01-10T12:31:11;19.70;;;18.20;;
41466;SDS011;27205;53.690;19.948;2023-01-10T12:53:46;29.10;;;26.50;;
41466;SDS011;27205;53.690;19.948;2023-01-10T12:59:05;22.70;;;20.90;;
41466;SDS011;27205;53.690;19.948;2023-01-10T13:04:19;18.90;;;17.50;;
41466;SDS011;27205;53.690;19.948;2023-01-10T13:09:26;25.30;;;22.80;;
41466;SDS011;27205;53.690;19.948;2023-01-10T13:14:54;29.30;;;26.80;;
41466;SDS011;27205;53.690;19.948;2023-01-10T13:25:27;26.80;;;24.50;;
41466;SDS011;27205;53.690;19.948;2023-01-10T13:30:34;28.00;;;25.60;;
41466;SDS011;27205;53.690;19.948;2023-01-10T13:35:40;26.20;;;24.00;;
41466;SDS011;27205;53.690;19.948;2023-01-10T13:40:54;22.90;;;21.10;;
41466;SDS011;27205;53.690;19.948;2023-01-10T13:51:37;22.10;;;20.30;;
41466;SDS011;27205;53.690;19.948;2023-01-10T13:56:42;20.10;;;18.50;;
41466;SDS011;27205;53.690;19.948;2023-01-10T14:01:53;21.00;;;19.40;;
41466;SDS011;27205;53.690;19.948;2023-01-10T14:12:46;21.30;;;19.70;;
41466;SDS011;27205;53.690;19.948;2023-01-10T14:18:03;25.90;;;23.70;;
41466;SDS011;27205;53.690;19.948;2023-01-10T14:28:22;21.30;;;19.60;;
41466;SDS011;27205;53.690;19.948;2023-01-10T14:33:29;25.30;;;23.20;;
41466;SDS011;27205;53.690;19.948;2023-01-10T14:38:36;20.60;;;18.90;;
41466;SDS011;27205;53.690;19.948;2023-01-10T14:43:44;24.40;;;22.00;;
41466;SDS011;27205;53.690;19.948;2023-01-10T14:48:55;34.20;;;25.10;;
41466;SDS011;27205;53.690;19.948;2023-01-10T14:54:09;50.00;;;36.60;;
41466;SDS011;27205;53.690;19.948;2023-01-10T14:59:31;81.10;;;56.30;;
41466;SDS011;27205;53.690;19.948;2023-01-10T15:04:36;70.40;;;52.10;;
41466;SDS011;27205;53.690;19.948;2023-01-10T15:09:46;86.50;;;58.20;;
41466;SDS011;27205;53.690;19.948;2023-01-10T15:15:02;66.60;;;50.90;;
41466;SDS011;27205;53.690;19.948;2023-01-10T15:20:13;79.00;;;37.10;;
41466;SDS011;27205;53.690;19.948;2023-01-10T15:30:29;36.80;;;27.10;;
41466;SDS011;27205;53.690;19.948;2023-01-10T15:35:37;60.30;;;31.30;;
41466;SDS011;27205;53.690;19.948;2023-01-10T15:45:45;30.40;;;21.00;;
41466;SDS011;27205;53.690;19.948;2023-01-10T15:50:54;28.20;;;21.70;;
41466;SDS011;27205;53.690;19.948;2023-01-10T15:56:07;52.40;;;26.50;;
41466;SDS011;27205;53.690;19.948;2023-01-10T16:01:16;78.90;;;33.30;;
41466;SDS011;27205;53.690;19.948;2023-01-10T16:11:38;43.10;;;25.80;;
41466;SDS011;27205;53.690;19.948;2023-01-10T16:17:09;55.60;;;24.60;;
41466;SDS011;27205;53.690;19.948;2023-01-10T16:22:15;36.20;;;20.80;;
41466;SDS011;27205;53.690;19.948;2023-01-10T16:27:21;47.70;;;24.20;;
41466;SDS011;27205;53.690;19.948;2023-01-10T16:32:25;24.30;;;20.40;;
41466;SDS011;27205;53.690;19.948;2023-01-10T16:37:29;26.20;;;21.10;;
41466;SDS011;27205;53.690;19.948;2023-01-10T16:47:55;28.80;;;18.80;;
41466;SDS011;27205;53.690;19.948;2023-01-10T16:52:58;23.30;;;17.90;;
41466;SDS011;27205;53.690;19.948;2023-01-10T16:58:02;37.10;;;16.50;;
41466;SDS011;27205;53.690;19.948;2023-01-10T17:03:16;25.10;;;12.20;;
41466;SDS011;27205;53.690;19.948;2023-01-10T17:08:22;32.90;;;19.80;;
41466;SDS011;27205;53.690;19.948;2023-01-10T17:13:31;29.20;;;17.80;;
41466;SDS011;27205;53.690;19.948;2023-01-10T17:18:37;27.70;;;18.30;;
41466;SDS011;27205;53.690;19.948;2023-01-10T17:23:41;27.60;;;16.40;;
41466;SDS011;27205;53.690;19.948;2023-01-10T17:28:45;34.90;;;14.40;;
41466;SDS011;27205;53.690;19.948;2023-01-10T17:33:52;25.10;;;18.60;;
41466;SDS011;27205;53.690;19.948;2023-01-10T17:38:56;20.30;;;15.00;;
41466;SDS011;27205;53.690;19.948;2023-01-10T17:44:00;22.50;;;19.90;;
41466;SDS011;27205;53.690;19.948;2023-01-10T17:49:03;31.40;;;19.60;;
41466;SDS011;27205;53.690;19.948;2023-01-10T17:54:07;33.70;;;24.90;;
41466;SDS011;27205;53.690;19.948;2023-01-10T17:59:11;40.90;;;28.70;;
41466;SDS011;27205;53.690;19.948;2023-01-10T18:04:16;31.40;;;25.30;;
41466;SDS011;27205;53.690;19.948;2023-01-10T18:09:19;41.70;;;27.90;;
41466;SDS011;27205;53.690;19.948;2023-01-10T18:14:23;49.30;;;29.30;;
41466;SDS011;27205;53.690;19.948;2023-01-10T18:19:38;26.90;;;24.20;;
41466;SDS011;27205;53.690;19.948;2023-01-10T18:24:42;34.00;;;30.00;;
41466;SDS011;27205;53.690;19.948;2023-01-10T18:29:48;33.90;;;30.90;;
41466;SDS011;27205;53.690;19.948;2023-01-10T18:34:52;31.60;;;29.00;;
41466;SDS011;27205;53.690;19.948;2023-01-10T18:39:55;38.50;;;35.10;;
41466;SDS011;27205;53.690;19.948;2023-01-10T18:44:59;33.30;;;30.40;;
41466;SDS011;27205;53.690;19.948;2023-01-10T18:50:02;38.00;;;34.60;;
41466;SDS011;27205;53.690;19.948;2023-01-10T18:55:07;48.80;;;44.10;;
41466;SDS011;27205;53.690;19.948;2023-01-10T19:00:11;40.80;;;37.10;;
41466;SDS011;27205;53.690;19.948;2023-01-10T19:05:15;36.20;;;33.10;;
41466;SDS011;27205;53.690;19.948;2023-01-10T19:10:18;29.60;;;27.20;;
41466;SDS011;27205;53.690;19.948;2023-01-10T19:15:22;32.00;;;29.10;;
41466;SDS011;27205;53.690;19.948;2023-01-10T19:20:25;29.80;;;27.00;;
41466;SDS011;27205;53.690;19.948;2023-01-10T19:25:29;42.20;;;38.50;;
41466;SDS011;27205;53.690;19.948;2023-01-10T19:30:35;39.40;;;35.90;;
41466;SDS011;27205;53.690;19.948;2023-01-10T19:35:39;38.20;;;34.20;;
41466;SDS011;27205;53.690;19.948;2023-01-10T19:40:43;36.50;;;31.80;;
41466;SDS011;27205;53.690;19.948;2023-01-10T19:45:52;51.80;;;47.20;;
41466;SDS011;27205;53.690;19.948;2023-01-10T19:51:02;34.30;;;31.00;;
41466;SDS011;27205;53.690;19.948;2023-01-10T19:56:07;34.90;;;31.20;;
41466;SDS011;27205;53.690;19.948;2023-01-10T20:06:48;32.50;;;29.40;;
41466;SDS011;27205;53.690;19.948;2023-01-10T20:11:51;48.30;;;44.10;;
41466;SDS011;27205;53.690;19.948;2023-01-10T20:23:39;56.60;;;51.10;;
41466;SDS011;27205;53.690;19.948;2023-01-10T20:28:44;41.80;;;37.10;;
41466;SDS011;27205;53.690;19.948;2023-01-10T20:33:49;40.40;;;36.40;;
41466;SDS011;27205;53.690;19.948;2023-01-10T20:38:53;43.80;;;36.70;;
41466;SDS011;27205;53.690;19.948;2023-01-10T20:50:56;43.50;;;39.00;;
41466;SDS011;27205;53.690;19.948;2023-01-10T20:56:02;52.30;;;43.00;;
41466;SDS011;27205;53.690;19.948;2023-01-10T21:01:08;41.90;;;37.50;;
41466;SDS011;27205;53.690;19.948;2023-01-10T21:06:17;52.40;;;45.50;;
41466;SDS011;27205;53.690;19.948;2023-01-10T21:11:21;40.30;;;36.60;;
41466;SDS011;27205;53.690;19.948;2023-01-10T21:16:26;36.60;;;32.70;;
41466;SDS011;27205;53.690;19.948;2023-01-10T21:21:30;33.30;;;29.40;;
41466;SDS011;27205;53.690;19.948;2023-01-10T21:26:35;33.80;;;30.40;;
41466;SDS011;27205;53.690;19.948;2023-01-10T21:31:40;41.00;;;36.90;;
41466;SDS011;27205;53.690;19.948;2023-01-10T21:36:44;29.60;;;26.80;;
41466;SDS011;27205;53.690;19.948;2023-01-10T21:41:47;32.30;;;29.40;;
41466;SDS011;27205;53.690;19.948;2023-01-10T21:47:10;28.60;;;25.70;;
41466;SDS011;27205;53.690;19.948;2023-01-10T21:52:13;29.50;;;26.30;;
41466;SDS011;27205;53.690;19.948;2023-01-10T21:57:17;27.50;;;24.70;;
41466;SDS011;27205;53.690;19.948;2023-01-10T22:02:24;30.30;;;27.30;;
41466;SDS011;27205;53.690;19.948;2023-01-10T22:07:32;29.10;;;26.40;;
41466;SDS011;27205;53.690;19.948;2023-01-10T22:12:35;29.10;;;26.70;;
41466;SDS011;27205;53.690;19.948;2023-01-10T22:17:39;28.40;;;25.80;;
41466;SDS011;27205;53.690;19.948;2023-01-10T22:22:42;26.70;;;24.30;;
41466;SDS011;27205;53.690;19.948;2023-01-10T22:27:46;20.20;;;18.10;;
41466;SDS011;27205;53.690;19.948;2023-01-10T22:32:53;28.50;;;26.00;;
41466;SDS011;27205;53.690;19.948;2023-01-10T22:37:57;27.00;;;24.20;;
41466;SDS011;27205;53.690;19.948;2023-01-10T22:43:00;26.10;;;23.40;;
41466;SDS011;27205;53.690;19.948;2023-01-10T22:48:04;32.00;;;26.50;;
41466;SDS011;27205;53.690;19.948;2023-01-10T22:53:09;32.90;;;29.50;;
41466;SDS011;27205;53.690;19.948;2023-01-10T22:58:12;30.60;;;24.10;;
41466;SDS011;27205;53.690;19.948;2023-01-10T23:03:16;34.80;;;28.20;;
41466;SDS011;27205;53.690;19.948;2023-01-10T23:08:19;30.60;;;27.90;;
41466;SDS011;27205;53.690;19.948;2023-01-10T23:13:23;33.60;;;30.50;;
41466;SDS011;27205;53.690;19.948;2023-01-10T23:18:27;31.70;;;29.20;;
41466;SDS011;27205;53.690;19.948;2023-01-10T23:23:31;29.90;;;27.40;;
41466;SDS011;27205;53.690;19.948;2023-01-10T23:28:38;31.10;;;28.50;;
41466;SDS011;27205;53.690;19.948;2023-01-10T23:33:46;32.70;;;30.00;;
41466;SDS011;27205;53.690;19.948;2023-01-10T23:38:50;28.70;;;26.20;;
41466;SDS011;27205;53.690;19.948;2023-01-10T23:43:54;27.70;;;25.40;;
41466;SDS011;27205;53.690;19.948;2023-01-10T23:48:57;32.50;;;29.80;;
41466;SDS011;27205;53.690;19.948;2023-01-10T23:54:00;34.30;;;31.50;;
41466;SDS011;27205;53.690;19.948;2023-01-10T23:59:04;32.60;;;29.80;;
